KCNW/CNW METAR and TAF weather

Enter ICAO airport designator
Station Type Date Time Source
KCNW METAR 2021/09/27 03:55 UTC NOAA

KCNW 270355Z 00000KT 10SM SKC 18/12 A3002


Station Type Date Time Source
KCNW Decoded METAR 2021/09/27 03:55 UTC NOAA

Station name not available
Sep 26, 2021 - 11:55 PM EDT / 2021.09.27 0355 UTC
Wind: Calm:0
Visibility: 10 mile(s):0
Sky conditions: clear
Temperature: 64 F (18 C)
Dew Point: 53 F (12 C)
Relative Humidity: 67%
Pressure (altimeter): 30.02 in. Hg (1016 hPa)
ob: KCNW 270355Z 00000KT 10SM SKC 18/12 A3002
cycle: 4

Station Type Date Time Source
KCNW TAF UTC NOAA

Error!

Example: see airport list